Time;durP1;ratioP1;P1;durP2;ratioP2;P2;SDS_P1;SDS_P2;PMS_P1;PMS_P2;Temp;Humidity;BMP_temperature;BMP_pressure;BME280_temperature;BME280_humidity;BME280_pressure;Samples;Min_cycle;Max_cycle;Signal;HPM_P1;HPM_P2
2021/12/01 00:00:19;;;;;;;0.82;0.70;;;5.80;92.20;;;;;;5002256;28;20431;-81
2021/12/01 00:02:54;;;;;;;1.20;1.00;;;5.70;92.20;;;;;;4967063;28;20084;-81
2021/12/01 00:05:21;;;;;;;0.50;0.50;;;5.70;92.20;;;;;;4988238;28;20029;-79
2021/12/01 00:07:47;;;;;;;0.73;0.73;;;5.70;92.20;;;;;;4993562;28;20459;-81
2021/12/01 00:10:13;;;;;;;1.10;1.00;;;5.70;92.20;;;;;;5008229;28;20037;-80
2021/12/01 00:12:38;;;;;;;2.22;1.05;;;5.70;92.20;;;;;;4997678;28;20049;-80
2021/12/01 00:15:04;;;;;;;0.80;0.80;;;5.70;92.20;;;;;;4988999;28;20043;-80
2021/12/01 00:17:30;;;;;;;0.60;0.60;;;5.70;92.20;;;;;;4998274;28;20117;-80
2021/12/01 00:19:55;;;;;;;1.05;0.95;;;5.70;92.20;;;;;;4999054;28;20142;-80
2021/12/01 00:22:21;;;;;;;0.98;0.90;;;5.70;92.20;;;;;;5000818;28;20160;-81
2021/12/01 00:24:47;;;;;;;0.95;0.77;;;5.70;92.20;;;;;;5012900;28;20029;-80
2021/12/01 00:27:12;;;;;;;1.30;1.17;;;5.70;92.20;;;;;;5008825;28;20059;-79
2021/12/01 00:29:38;;;;;;;0.70;0.70;;;5.70;92.30;;;;;;5011730;28;20037;-80
2021/12/01 00:32:04;;;;;;;0.90;0.90;;;5.70;92.30;;;;;;4947449;28;20060;-81
2021/12/01 00:34:29;;;;;;;0.63;0.60;;;5.70;92.30;;;;;;5005695;28;20541;-81
2021/12/01 00:36:55;;;;;;;0.75;0.75;;;5.70;92.30;;;;;;4995367;28;20045;-80
2021/12/01 00:39:20;;;;;;;0.75;0.50;;;5.70;92.30;;;;;;4973755;28;20045;-79
2021/12/01 00:41:48;;;;;;;0.68;0.60;;;5.60;92.30;;;;;;4995924;28;20602;-80
2021/12/01 00:44:13;;;;;;;0.57;0.57;;;5.70;92.30;;;;;;4999087;28;20030;-80
2021/12/01 00:46:42;;;;;;;0.73;0.57;;;5.70;92.30;;;;;;4997057;28;20344;-79
2021/12/01 00:49:08;;;;;;;0.60;0.60;;;5.70;92.30;;;;;;5001483;28;20037;-82
2021/12/01 00:51:33;;;;;;;0.45;0.45;;;5.70;92.30;;;;;;4988073;28;20026;-80
2021/12/01 00:53:59;;;;;;;0.75;0.70;;;5.70;92.30;;;;;;4994200;28;20093;-80
2021/12/01 00:56:24;;;;;;;0.90;0.57;;;5.70;92.30;;;;;;4965022;28;20672;-79
2021/12/01 00:58:51;;;;;;;0.70;0.70;;;5.70;92.30;;;;;;5015550;28;20443;-79
2021/12/01 01:01:17;;;;;;;0.45;0.43;;;5.70;92.30;;;;;;4987264;28;20534;-80
2021/12/01 01:03:42;;;;;;;0.60;0.60;;;5.70;92.30;;;;;;4989814;28;20030;-81
2021/12/01 01:06:08;;;;;;;0.40;0.40;;;5.70;92.70;;;;;;4983368;28;20049;-80
2021/12/01 01:08:34;;;;;;;0.45;0.45;;;5.70;92.30;;;;;;4988254;28;20450;-79
2021/12/01 01:16:25;;;;;;;0.52;0.52;;;5.70;92.30;;;;;;5004614;28;20121;-78
2021/12/01 01:18:52;;;;;;;0.65;0.65;;;5.70;92.30;;;;;;4969425;28;20499;-79
2021/12/01 01:21:18;;;;;;;0.77;0.77;;;5.70;92.30;;;;;;5000974;28;20037;-78
2021/12/01 01:23:44;;;;;;;0.80;0.60;;;5.70;92.30;;;;;;5003485;28;20067;-79
2021/12/01 01:26:12;;;;;;;0.45;0.45;;;5.70;92.30;;;;;;4954976;28;20038;-79
2021/12/01 01:28:38;;;;;;;0.70;0.70;;;5.70;92.30;;;;;;5001063;28;20030;-80
2021/12/01 01:31:03;;;;;;;0.70;0.70;;;5.70;92.30;;;;;;5023193;28;20039;-78
2021/12/01 01:33:29;;;;;;;0.60;0.60;;;5.70;92.30;;;;;;4971739;28;20045;-79
2021/12/01 01:35:54;;;;;;;0.60;0.60;;;5.70;92.30;;;;;;5001616;28;20026;-78
2021/12/01 01:38:20;;;;;;;1.52;1.20;;;5.70;92.30;;;;;;4979136;28;20033;-78
2021/12/01 01:40:46;;;;;;;0.68;0.68;;;5.70;92.30;;;;;;5007166;28;20048;-80
2021/12/01 01:43:11;;;;;;;0.50;0.50;;;5.70;92.30;;;;;;4974576;28;20085;-79
2021/12/01 01:45:37;;;;;;;0.60;0.60;;;5.70;92.30;;;;;;5007371;28;20057;-78
2021/12/01 01:48:08;;;;;;;0.52;0.52;;;5.70;92.30;;;;;;4978456;28;20037;-78
2021/12/01 01:50:38;;;;;;;0.55;0.43;;;5.70;92.30;;;;;;4985866;28;20065;-79
2021/12/01 01:53:09;;;;;;;0.60;0.50;;;5.70;92.30;;;;;;4929869;28;20081;-80
2021/12/01 01:55:35;;;;;;;0.60;0.40;;;5.70;92.30;;;;;;4985088;28;20030;-79
2021/12/01 01:58:01;;;;;;;0.47;0.47;;;5.70;92.60;;;;;;4981779;28;20100;-79
2021/12/01 02:00:26;;;;;;;0.40;0.40;;;5.70;92.30;;;;;;4972702;28;20058;-79
2021/12/01 02:02:53;;;;;;;0.50;0.50;;;5.70;92.30;;;;;;4981960;28;20054;-79
2021/12/01 02:05:18;;;;;;;0.50;0.50;;;5.70;92.30;;;;;;4944313;28;20038;-79
2021/12/01 02:07:44;;;;;;;0.30;0.30;;;5.70;92.30;;;;;;4975417;28;20038;-78
2021/12/01 02:10:09;;;;;;;0.40;0.40;;;5.70;92.20;;;;;;4975021;28;20034;-79
2021/12/01 02:12:38;;;;;;;0.40;0.40;;;5.70;92.30;;;;;;4961307;28;20127;-78
2021/12/01 02:15:04;;;;;;;0.22;0.22;;;5.70;92.20;;;;;;4981335;28;20034;-79
2021/12/01 02:17:29;;;;;;;0.50;0.43;;;5.70;92.20;;;;;;4936138;28;20041;-78
2021/12/01 02:19:55;;;;;;;0.68;0.60;;;5.80;92.30;;;;;;4949380;28;20030;-79
2021/12/01 02:22:21;;;;;;;0.63;0.60;;;5.80;92.30;;;;;;4983828;28;20047;-79
2021/12/01 02:24:47;;;;;;;0.32;0.32;;;5.80;92.30;;;;;;4984158;28;20585;-79
2021/12/01 02:27:13;;;;;;;0.63;0.40;;;5.80;92.30;;;;;;4970919;28;20058;-81
2021/12/01 02:29:38;;;;;;;0.30;0.30;;;5.70;92.20;;;;;;4985022;28;20512;-79
2021/12/01 02:32:04;;;;;;;0.30;0.30;;;5.80;92.30;;;;;;4969337;28;20693;-79
2021/12/01 02:34:31;;;;;;;0.30;0.30;;;5.70;92.20;;;;;;4976230;28;20539;-79
2021/12/01 02:36:57;;;;;;;0.70;0.25;;;5.80;92.30;;;;;;4975695;28;20058;-79
2021/12/01 02:39:23;;;;;;;0.63;0.40;;;5.80;92.30;;;;;;4953338;28;20101;-79
2021/12/01 02:41:57;;;;;;;0.35;0.35;;;5.80;92.30;;;;;;4968773;28;20456;-81
2021/12/01 02:44:23;;;;;;;0.65;0.40;;;5.80;92.30;;;;;;4972685;28;20050;-81
2021/12/01 02:46:48;;;;;;;0.63;0.50;;;5.80;92.30;;;;;;4985124;28;20483;-80
2021/12/01 02:49:18;;;;;;;0.30;0.30;;;5.80;92.30;;;;;;4991064;28;20026;-80
2021/12/01 02:51:44;;;;;;;0.40;0.40;;;5.80;92.30;;;;;;5006619;28;20117;-81
2021/12/01 02:54:09;;;;;;;0.57;0.50;;;5.80;92.20;;;;;;5004424;28;20049;-80
2021/12/01 02:56:36;;;;;;;0.40;0.40;;;5.80;92.20;;;;;;5007989;28;20048;-81
2021/12/01 02:59:03;;;;;;;0.57;0.43;;;5.80;92.20;;;;;;5005404;28;20071;-80
2021/12/01 03:01:29;;;;;;;1.50;0.40;;;5.80;92.20;;;;;;4974810;28;20029;-81
2021/12/01 03:03:55;;;;;;;0.30;0.30;;;5.80;92.20;;;;;;5009990;28;20083;-81
2021/12/01 03:06:22;;;;;;;0.50;0.32;;;5.80;92.20;;;;;;5009272;28;20568;-81
2021/12/01 03:08:48;;;;;;;0.40;0.40;;;5.80;92.20;;;;;;5026085;28;20088;-81
2021/12/01 03:11:14;;;;;;;1.48;0.32;;;5.80;92.20;;;;;;5009163;28;20030;-80
2021/12/01 03:13:39;;;;;;;0.35;0.35;;;5.80;92.20;;;;;;5011043;28;20041;-80
2021/12/01 03:16:05;;;;;;;0.30;0.28;;;5.80;92.10;;;;;;5005323;28;20326;-81
2021/12/01 03:18:30;;;;;;;0.50;0.50;;;5.80;92.20;;;;;;5020727;28;20026;-80
2021/12/01 03:20:56;;;;;;;0.52;0.47;;;5.80;92.20;;;;;;5018856;28;20057;-79
2021/12/01 03:23:22;;;;;;;0.40;0.40;;;5.80;92.20;;;;;;4996562;28;20037;-78
2021/12/01 03:25:47;;;;;;;0.57;0.57;;;5.80;92.10;;;;;;5008367;28;20039;-81
2021/12/01 03:28:13;;;;;;;1.02;0.50;;;5.80;92.20;;;;;;5002852;28;20052;-80
2021/12/01 03:30:39;;;;;;;1.38;0.60;;;5.80;92.20;;;;;;4995393;28;20067;-81
2021/12/01 03:33:08;;;;;;;0.68;0.52;;;5.80;92.10;;;;;;4993472;28;20460;-78
2021/12/01 03:35:34;;;;;;;0.40;0.40;;;5.80;92.10;;;;;;4989937;28;20041;-78
2021/12/01 03:37:59;;;;;;;0.57;0.57;;;5.80;92.20;;;;;;5003125;28;20085;-78
2021/12/01 03:40:25;;;;;;;0.47;0.40;;;5.80;92.10;;;;;;4997667;28;20037;-78
2021/12/01 03:42:50;;;;;;;0.50;0.50;;;5.80;92.10;;;;;;5000971;28;20030;-80
2021/12/01 03:45:16;;;;;;;1.17;0.40;;;5.80;92.10;;;;;;4996797;28;20037;-80
2021/12/01 03:47:42;;;;;;;0.35;0.35;;;5.80;92.10;;;;;;5005309;28;20026;-80
2021/12/01 03:50:08;;;;;;;0.40;0.40;;;5.80;92.10;;;;;;4982455;28;20161;-80
2021/12/01 03:52:33;;;;;;;0.77;0.50;;;5.80;92.10;;;;;;5002141;28;20700;-80
2021/12/01 03:54:59;;;;;;;0.50;0.50;;;5.80;92.10;;;;;;5001846;28;20039;-77
2021/12/01 03:57:25;;;;;;;1.58;0.40;;;5.80;92.10;;;;;;4987575;28;20101;-82
2021/12/01 03:59:51;;;;;;;0.40;0.40;;;5.80;92.10;;;;;;4995969;28;20042;-81
2021/12/01 04:02:16;;;;;;;1.27;0.52;;;5.80;92.10;;;;;;5006788;28;20121;-80
2021/12/01 04:04:42;;;;;;;0.47;0.40;;;5.80;92.10;;;;;;4991744;28;20486;-79
2021/12/01 04:07:07;;;;;;;0.65;0.50;;;5.80;92.10;;;;;;4977982;28;20056;-80
2021/12/01 04:09:33;;;;;;;0.50;0.40;;;5.90;92.10;;;;;;5022465;28;20347;-80
2021/12/01 04:11:59;;;;;;;0.70;0.50;;;5.80;92.10;;;;;;5005417;28;20557;-79
2021/12/01 04:14:25;;;;;;;0.60;0.50;;;5.80;92.10;;;;;;5003471;28;20038;-81
2021/12/01 04:16:50;;;;;;;0.50;0.50;;;5.80;92.10;;;;;;5008602;28;20579;-81
2021/12/01 04:19:16;;;;;;;0.63;0.55;;;5.80;92.10;;;;;;5020850;28;20065;-81
2021/12/01 04:21:41;;;;;;;0.60;0.50;;;5.80;92.10;;;;;;4977018;28;20462;-80
2021/12/01 04:24:07;;;;;;;0.50;0.50;;;5.80;92.10;;;;;;5007178;28;20049;-81
2021/12/01 04:26:33;;;;;;;2.10;0.60;;;5.80;92.10;;;;;;4991517;28;20041;-80
2021/12/01 04:28:59;;;;;;;1.35;0.60;;;5.80;92.10;;;;;;5005392;28;20037;-79
2021/12/01 04:31:26;;;;;;;3.85;0.85;;;5.80;92.10;;;;;;4998263;28;20056;-80
2021/12/01 04:33:51;;;;;;;10.00;6.10;;;5.80;92.10;;;;;;4999692;28;20037;-79
2021/12/01 04:36:17;;;;;;;4.68;3.10;;;5.90;92.10;;;;;;4977692;28;20041;-80
2021/12/01 04:38:43;;;;;;;8.52;4.78;;;5.90;92.10;;;;;;4990709;28;20036;-80
2021/12/01 04:41:12;;;;;;;3.03;2.25;;;5.90;92.10;;;;;;4985698;28;20638;-81
2021/12/01 04:43:38;;;;;;;1.73;1.30;;;5.90;92.10;;;;;;5005285;28;20384;-81
2021/12/01 04:46:04;;;;;;;4.10;3.05;;;5.90;92.10;;;;;;4984914;28;20041;-80
2021/12/01 04:48:30;;;;;;;2.00;1.77;;;5.90;92.00;;;;;;4991456;28;20479;-80
2021/12/01 04:50:55;;;;;;;2.92;2.03;;;5.90;92.00;;;;;;4994424;28;20511;-80
2021/12/01 04:53:21;;;;;;;6.28;4.22;;;5.90;92.00;;;;;;4978462;28;20502;-80
2021/12/01 04:55:46;;;;;;;5.07;3.00;;;5.90;92.10;;;;;;5002070;28;20051;-81
2021/12/01 04:58:12;;;;;;;53.83;31.45;;;5.90;92.00;;;;;;4960941;28;20072;-81
2021/12/01 05:00:37;;;;;;;57.50;29.35;;;5.90;92.10;;;;;;4976047;28;20074;-81
2021/12/01 05:03:04;;;;;;;16.05;10.25;;;5.90;92.00;;;;;;4978409;28;20041;-81
2021/12/01 05:05:30;;;;;;;4.80;3.17;;;5.90;92.00;;;;;;5002195;28;20045;-79
2021/12/01 05:07:55;;;;;;;2.92;1.80;;;5.90;92.00;;;;;;4989999;28;20126;-79
2021/12/01 05:10:21;;;;;;;4.18;2.63;;;5.90;92.00;;;;;;4959531;28;20566;-80
2021/12/01 05:12:47;;;;;;;6.95;4.65;;;5.90;92.00;;;;;;4969739;28;20061;-80
2021/12/01 05:15:12;;;;;;;1.45;1.27;;;5.90;92.00;;;;;;5002434;28;20095;-80
2021/12/01 05:17:38;;;;;;;1.50;0.93;;;5.90;92.00;;;;;;4986406;28;20042;-80
2021/12/01 05:20:04;;;;;;;2.13;1.30;;;5.90;92.00;;;;;;5007367;28;20052;-80
2021/12/01 05:22:30;;;;;;;3.00;2.35;;;5.90;92.00;;;;;;4984662;28;20517;-80
2021/12/01 05:24:56;;;;;;;1.30;1.10;;;5.90;92.00;;;;;;5000919;28;20054;-80
2021/12/01 05:27:22;;;;;;;3.63;1.95;;;5.90;91.90;;;;;;4991101;28;20032;-80
2021/12/01 05:29:48;;;;;;;2.50;1.67;;;5.90;91.90;;;;;;5005660;28;20056;-81
2021/12/01 05:32:13;;;;;;;2.25;1.45;;;5.90;91.90;;;;;;4954280;28;20053;-80
2021/12/01 05:34:39;;;;;;;2.72;1.42;;;5.90;91.90;;;;;;5004612;28;20057;-80
2021/12/01 05:37:04;;;;;;;1.45;1.20;;;5.90;92.20;;;;;;5002272;28;20095;-80
2021/12/01 05:39:32;;;;;;;1.00;0.90;;;6.00;91.90;;;;;;4992437;28;20025;-80
2021/12/01 05:41:58;;;;;;;2.78;1.00;;;5.90;91.90;;;;;;4990171;28;20049;-79
2021/12/01 05:44:23;;;;;;;1.30;1.00;;;6.00;91.90;;;;;;5004941;28;20060;-79
2021/12/01 05:46:49;;;;;;;0.73;0.73;;;6.00;91.90;;;;;;4994024;28;20087;-79
2021/12/01 05:49:14;;;;;;;1.25;1.00;;;6.00;91.90;;;;;;5000140;28;20025;-79
2021/12/01 05:51:40;;;;;;;1.17;1.02;;;6.00;91.90;;;;;;4967106;28;20497;-79
2021/12/01 05:54:07;;;;;;;1.17;0.70;;;6.00;91.90;;;;;;4963077;28;20069;-79
2021/12/01 05:56:32;;;;;;;2.00;0.80;;;6.00;91.90;;;;;;4998837;28;20053;-79
2021/12/01 05:58:58;;;;;;;1.17;1.08;;;6.00;92.20;;;;;;5007417;28;20053;-80
2021/12/01 06:01:23;;;;;;;1.05;0.73;;;6.00;92.20;;;;;;4959814;28;20026;-80
2021/12/01 06:03:49;;;;;;;0.73;0.65;;;6.00;91.80;;;;;;4963769;28;20018;-79
2021/12/01 06:06:14;;;;;;;0.90;0.90;;;6.00;91.80;;;;;;5009373;28;20041;-80
2021/12/01 06:08:40;;;;;;;2.20;1.00;;;6.10;92.20;;;;;;4990263;28;20023;-80
2021/12/01 06:11:06;;;;;;;0.60;0.60;;;6.10;91.80;;;;;;4972322;28;20033;-79
2021/12/01 06:13:31;;;;;;;1.52;0.80;;;6.10;91.80;;;;;;4997937;28;20120;-79
2021/12/01 06:15:57;;;;;;;4.15;0.63;;;6.10;91.80;;;;;;4995135;28;20159;-80
2021/12/01 06:18:23;;;;;;;0.65;0.65;;;6.10;91.80;;;;;;4995516;28;20022;-80
2021/12/01 06:20:48;;;;;;;2.35;1.33;;;6.10;91.80;;;;;;4993766;28;20115;-80
2021/12/01 06:23:14;;;;;;;1.05;0.98;;;6.10;91.70;;;;;;4992370;28;20140;-79
2021/12/01 06:25:39;;;;;;;1.58;1.40;;;6.10;91.70;;;;;;4999580;28;20762;-80
2021/12/01 06:28:05;;;;;;;0.80;0.80;;;6.10;91.70;;;;;;5011021;28;20050;-80
2021/12/01 06:30:32;;;;;;;1.15;0.70;;;6.20;91.70;;;;;;4983507;28;20442;-79
2021/12/01 06:32:58;;;;;;;0.80;0.60;;;6.20;91.70;;;;;;4957525;28;20509;-78
2021/12/01 06:35:23;;;;;;;1.08;0.55;;;6.20;91.70;;;;;;4988129;28;20034;-79
2021/12/01 06:37:50;;;;;;;0.57;0.52;;;6.20;92.00;;;;;;4950536;28;20169;-80
2021/12/01 06:40:16;;;;;;;3.35;0.98;;;6.20;91.60;;;;;;4997766;28;20140;-79
2021/12/01 06:42:42;;;;;;;0.60;0.60;;;6.20;91.60;;;;;;5007693;28;20061;-79
2021/12/01 06:45:08;;;;;;;1.08;0.60;;;6.20;91.60;;;;;;4996821;28;20462;-80
2021/12/01 06:47:34;;;;;;;0.93;0.68;;;6.20;91.60;;;;;;4954528;28;20046;-80
2021/12/01 06:49:59;;;;;;;0.70;0.70;;;6.20;91.60;;;;;;4958325;28;20570;-80
2021/12/01 06:52:28;;;;;;;1.08;0.90;;;6.20;91.60;;;;;;4965765;28;20117;-79
2021/12/01 06:54:54;;;;;;;1.15;0.80;;;6.20;91.60;;;;;;4961563;28;20103;-80
2021/12/01 06:57:20;;;;;;;1.30;0.80;;;6.20;91.60;;;;;;4987014;28;20117;-80
2021/12/01 06:59:45;;;;;;;0.82;0.60;;;6.20;91.60;;;;;;4986087;28;20106;-79
2021/12/01 07:02:11;;;;;;;1.00;0.77;;;6.20;91.60;;;;;;4975604;28;20347;-81
2021/12/01 07:04:37;;;;;;;0.68;0.68;;;6.20;91.60;;;;;;5008946;28;20034;-79
2021/12/01 07:07:02;;;;;;;4.93;0.70;;;6.30;91.50;;;;;;4980262;28;20030;-78
2021/12/01 07:09:28;;;;;;;0.63;0.60;;;6.20;91.50;;;;;;4952324;28;20044;-80
2021/12/01 07:11:53;;;;;;;1.42;0.60;;;6.30;91.60;;;;;;4976774;28;20419;-80
2021/12/01 07:14:19;;;;;;;0.85;0.82;;;6.30;91.60;;;;;;4972493;28;20023;-80
2021/12/01 07:16:44;;;;;;;1.50;0.50;;;6.30;91.60;;;;;;4954110;28;20042;-80
2021/12/01 07:19:10;;;;;;;1.50;0.60;;;6.20;91.60;;;;;;4972140;28;20038;-79
2021/12/01 07:21:35;;;;;;;1.15;0.63;;;6.30;91.60;;;;;;4932023;28;20026;-80
2021/12/01 07:24:03;;;;;;;1.05;0.60;;;6.30;91.60;;;;;;4954256;28;20053;-81
2021/12/01 07:26:28;;;;;;;4.38;0.73;;;6.30;91.60;;;;;;4969081;28;20522;-81
2021/12/01 07:28:54;;;;;;;2.83;0.80;;;6.30;91.60;;;;;;4969718;28;20035;-80
2021/12/01 07:31:19;;;;;;;0.88;0.52;;;6.30;91.60;;;;;;4984791;28;20110;-81
2021/12/01 07:33:45;;;;;;;1.52;0.80;;;6.30;91.60;;;;;;4974034;28;20038;-80
2021/12/01 07:36:10;;;;;;;0.57;0.57;;;6.30;91.60;;;;;;4982081;28;20328;-80
2021/12/01 07:38:36;;;;;;;0.70;0.70;;;6.30;91.60;;;;;;4962867;28;20142;-80
2021/12/01 07:41:01;;;;;;;0.75;0.55;;;6.30;91.60;;;;;;4974463;28;20498;-81
2021/12/01 07:43:27;;;;;;;1.40;0.77;;;6.30;91.50;;;;;;4972223;28;20133;-80
2021/12/01 07:45:52;;;;;;;2.92;1.20;;;6.30;91.50;;;;;;4971202;28;20042;-80
2021/12/01 07:48:18;;;;;;;4.32;2.33;;;6.30;91.50;;;;;;4995700;28;20165;-80
2021/12/01 07:50:44;;;;;;;1.70;1.00;;;6.40;91.50;;;;;;4983159;28;20080;-80
2021/12/01 07:53:09;;;;;;;7.03;3.20;;;6.40;91.50;;;;;;4975494;28;20048;-80
2021/12/01 07:55:35;;;;;;;2.50;1.80;;;6.40;91.50;;;;;;4983243;28;20066;-79
2021/12/01 07:58:00;;;;;;;1.75;1.20;;;6.40;91.50;;;;;;4977844;28;20455;-80
2021/12/01 08:00:27;;;;;;;2.85;1.45;;;6.40;91.40;;;;;;4988034;28;20419;-78
2021/12/01 08:02:52;;;;;;;3.42;1.67;;;6.50;91.40;;;;;;4997738;28;20505;-78
2021/12/01 08:05:18;;;;;;;2.75;1.85;;;6.50;91.40;;;;;;4968286;28;20125;-79
2021/12/01 08:07:43;;;;;;;2.47;0.95;;;6.50;91.50;;;;;;4982088;28;21105;-79
2021/12/01 08:10:10;;;;;;;1.65;1.17;;;6.50;91.30;;;;;;4999183;28;20040;-79
2021/12/01 08:12:36;;;;;;;3.33;1.30;;;6.50;91.30;;;;;;4985333;28;20042;-79
2021/12/01 08:15:03;;;;;;;1.40;1.15;;;6.50;91.30;;;;;;4998283;28;20048;-79
2021/12/01 08:17:28;;;;;;;2.03;1.17;;;6.50;91.30;;;;;;4982450;28;20539;-80
2021/12/01 08:19:54;;;;;;;3.22;1.40;;;6.60;91.30;;;;;;5002559;28;20129;-80
2021/12/01 08:22:19;;;;;;;2.25;1.45;;;6.60;91.30;;;;;;4976693;28;20052;-79
2021/12/01 08:24:45;;;;;;;7.28;2.80;;;6.60;91.20;;;;;;4975427;28;20125;-79
2021/12/01 08:27:10;;;;;;;8.25;3.63;;;6.60;91.30;;;;;;4998860;28;20125;-79
2021/12/01 08:29:36;;;;;;;10.75;4.35;;;6.60;91.20;;;;;;4942924;28;20073;-80
2021/12/01 08:32:02;;;;;;;4.45;2.50;;;6.60;91.20;;;;;;4997642;28;20104;-79
2021/12/01 08:34:27;;;;;;;6.20;3.00;;;6.60;91.20;;;;;;4964102;28;20081;-79
2021/12/01 08:36:53;;;;;;;0.73;0.63;;;6.60;91.20;;;;;;4950303;28;20050;-79
2021/12/01 08:39:18;;;;;;;0.45;0.45;;;6.60;91.20;;;;;;4993249;28;20045;-79
2021/12/01 08:41:44;;;;;;;2.30;1.63;;;6.70;91.20;;;;;;4978640;28;20031;-79
2021/12/01 08:44:10;;;;;;;3.03;1.05;;;6.70;91.20;;;;;;4995452;28;20034;-79
2021/12/01 08:46:36;;;;;;;28.17;11.52;;;6.70;91.20;;;;;;4956168;28;20034;-79
2021/12/01 08:49:01;;;;;;;2.20;1.00;;;6.70;91.20;;;;;;4983412;28;20045;-78
2021/12/01 08:51:27;;;;;;;6.82;4.30;;;6.70;91.20;;;;;;4957365;28;20117;-79
2021/12/01 08:53:52;;;;;;;8.48;3.85;;;6.70;91.20;;;;;;4993290;28;20058;-79
2021/12/01 08:56:18;;;;;;;0.95;0.65;;;6.70;91.10;;;;;;4964725;28;20200;-79
2021/12/01 08:58:43;;;;;;;1.42;1.13;;;6.70;91.20;;;;;;4935516;28;20110;-79
2021/12/01 09:01:09;;;;;;;0.50;0.50;;;6.70;91.10;;;;;;4964478;28;20057;-78
2021/12/01 09:03:36;;;;;;;0.60;0.60;;;6.80;91.10;;;;;;4941250;28;20502;-78
2021/12/01 09:06:02;;;;;;;1.65;0.95;;;6.80;91.10;;;;;;4975348;28;20040;-79
2021/12/01 09:08:27;;;;;;;1.85;1.17;;;6.80;91.10;;;;;;4998510;28;20035;-79
2021/12/01 09:10:55;;;;;;;1.35;0.57;;;6.80;91.10;;;;;;4945125;28;20034;-79
2021/12/01 09:13:21;;;;;;;1.48;0.50;;;6.80;91.10;;;;;;4960885;28;20523;-79
2021/12/01 09:15:47;;;;;;;0.68;0.40;;;6.80;91.10;;;;;;4948410;28;20046;-78
2021/12/01 09:18:12;;;;;;;1.05;0.52;;;6.80;91.10;;;;;;4948299;28;20354;-79
2021/12/01 09:20:38;;;;;;;2.22;0.80;;;6.80;91.10;;;;;;4972311;28;20045;-78
2021/12/01 09:23:04;;;;;;;0.85;0.77;;;6.80;91.10;;;;;;4970634;28;20034;-78
2021/12/01 09:25:30;;;;;;;0.55;0.50;;;6.90;91.10;;;;;;4960829;28;20393;-80
2021/12/01 09:27:56;;;;;;;2.95;1.00;;;6.90;91.10;;;;;;4980205;28;20034;-79
2021/12/01 09:30:21;;;;;;;0.90;0.70;;;6.90;91.10;;;;;;4986043;28;20025;-79
2021/12/01 09:32:47;;;;;;;2.45;0.80;;;6.90;91.10;;;;;;4978414;28;20042;-79
2021/12/01 09:35:13;;;;;;;0.77;0.60;;;6.90;91.10;;;;;;4980473;28;20457;-78
2021/12/01 09:37:39;;;;;;;0.75;0.52;;;7.00;91.10;;;;;;4987822;28;20541;-80
2021/12/01 09:40:13;;;;;;;1.10;0.55;;;7.00;91.10;;;;;;4956281;28;20054;-81
2021/12/01 09:42:43;;;;;;;1.95;0.43;;;7.00;91.10;;;;;;4958519;28;20031;-80
2021/12/01 09:45:09;;;;;;;1.60;0.85;;;7.00;91.10;;;;;;4985520;28;20046;-79
2021/12/01 09:47:34;;;;;;;1.05;0.60;;;7.10;91.10;;;;;;4991831;28;20041;-80
2021/12/01 09:50:00;;;;;;;3.63;1.42;;;7.10;91.10;;;;;;4973181;28;20251;-80
2021/12/01 09:52:25;;;;;;;2.05;1.13;;;7.10;91.00;;;;;;4979754;28;20046;-80
2021/12/01 09:54:51;;;;;;;0.55;0.52;;;7.10;91.00;;;;;;4965131;28;20305;-80
2021/12/01 09:57:16;;;;;;;6.40;2.65;;;7.10;91.00;;;;;;4958961;28;20034;-80
2021/12/01 09:59:42;;;;;;;3.00;1.02;;;7.20;91.00;;;;;;4980967;28;20046;-81
2021/12/01 10:02:09;;;;;;;5.57;1.35;;;7.20;91.00;;;;;;4956546;28;20065;-80
2021/12/01 10:04:34;;;;;;;1.73;0.80;;;7.20;91.00;;;;;;4971141;28;20109;-80
2021/12/01 10:07:17;;;;;;;0.90;0.70;;;7.20;90.90;;;;;;4953233;28;20102;-81
2021/12/01 10:09:43;;;;;;;0.88;0.40;;;7.30;91.30;;;;;;4988510;28;20121;-80
2021/12/01 10:12:09;;;;;;;1.33;0.70;;;7.30;90.90;;;;;;4975874;28;20585;-81
2021/12/01 10:14:35;;;;;;;1.33;0.80;;;7.30;90.90;;;;;;4974776;28;20034;-80
2021/12/01 10:17:00;;;;;;;2.05;1.10;;;7.30;91.00;;;;;;4967411;28;20040;-79
2021/12/01 10:19:28;;;;;;;4.53;2.00;;;7.40;91.00;;;;;;4983330;28;20040;-78
2021/12/01 10:21:53;;;;;;;0.88;0.80;;;7.30;90.90;;;;;;4985029;28;20060;-79
2021/12/01 10:24:24;;;;;;;1.30;0.90;;;7.40;90.90;;;;;;4969990;28;20034;-78
2021/12/01 10:26:57;;;;;;;3.25;1.60;;;7.40;90.90;;;;;;4951768;28;20052;-80
2021/12/01 10:29:34;;;;;;;1.25;0.90;;;7.40;90.90;;;;;;4932619;28;20039;-80
2021/12/01 10:32:01;;;;;;;1.73;1.08;;;7.40;90.90;;;;;;4969998;28;20500;-78
2021/12/01 10:34:33;;;;;;;0.82;0.40;;;7.40;90.90;;;;;;4989318;28;20057;-81
2021/12/01 10:37:24;;;;;;;;;;;7.50;90.90;;;;;;4981167;28;20620;-80
2021/12/01 10:40:11;;;;;;;0.40;0.40;;;7.50;90.80;;;;;;4993847;28;20469;-79
2021/12/01 10:42:57;;;;;;;0.30;0.30;;;7.50;90.80;;;;;;4998866;28;20045;-78
2021/12/01 10:45:26;;;;;;;0.50;0.50;;;7.50;90.80;;;;;;4990304;28;20151;-78
2021/12/01 10:47:51;;;;;;;0.50;0.50;;;7.50;90.80;;;;;;4990457;28;20060;-78
2021/12/01 10:50:18;;;;;;;0.93;0.70;;;7.50;90.80;;;;;;4966173;28;20321;-80
2021/12/01 10:52:47;;;;;;;0.60;0.60;;;7.50;90.80;;;;;;4991805;28;20042;-80
2021/12/01 10:55:16;;;;;;;0.38;0.30;;;7.50;90.90;;;;;;5004178;28;20063;-82
2021/12/01 10:57:43;;;;;;;0.60;0.60;;;7.50;90.90;;;;;;4944421;28;20396;-80
2021/12/01 11:00:24;;;;;;;1.05;0.75;;;7.50;90.90;;;;;;4965584;28;20042;-82
2021/12/01 11:02:55;;;;;;;1.10;0.82;;;7.50;90.90;;;;;;4988964;28;20498;-79
2021/12/01 11:05:32;;;;;;;0.40;0.40;;;7.50;90.90;;;;;;4962802;28;20034;-78
2021/12/01 11:08:17;;;;;;;0.80;0.50;;;7.50;91.20;;;;;;4986135;28;20306;-79
2021/12/01 11:10:51;;;;;;;0.98;0.35;;;7.60;91.00;;;;;;5011254;28;20029;-79
2021/12/01 11:13:18;;;;;;;0.80;0.45;;;7.60;90.90;;;;;;4981836;28;20152;-79
2021/12/01 11:15:45;;;;;;;0.50;0.50;;;7.60;91.00;;;;;;5019041;28;20110;-80
2021/12/01 11:18:17;;;;;;;2.30;0.40;;;7.70;91.00;;;;;;4996489;28;20041;-78
2021/12/01 11:20:44;;;;;;;1.35;0.45;;;7.70;91.00;;;;;;4970118;28;20120;-80
2021/12/01 11:23:23;;;;;;;0.82;0.50;;;7.70;91.00;;;;;;5003694;28;20110;-78
2021/12/01 11:25:53;;;;;;;2.15;0.90;;;7.80;91.00;;;;;;4996278;28;20263;-80
2021/12/01 11:28:20;;;;;;;0.50;0.50;;;7.80;91.00;;;;;;4984050;28;20126;-79
2021/12/01 11:30:55;;;;;;;0.82;0.50;;;7.90;91.00;;;;;;4984134;28;20281;-79
2021/12/01 11:33:21;;;;;;;1.63;0.45;;;7.90;91.00;;;;;;5001592;28;20504;-79
2021/12/01 11:35:52;;;;;;;0.98;0.40;;;7.90;90.90;;;;;;5000278;28;20038;-80
2021/12/01 11:38:18;;;;;;;0.40;0.40;;;7.90;90.90;;;;;;4992726;28;20041;-80
2021/12/01 11:40:43;;;;;;;1.58;0.93;;;8.00;91.00;;;;;;4976628;28;20400;-80
2021/12/01 11:43:10;;;;;;;0.85;0.85;;;8.00;90.90;;;;;;5005020;28;20037;-81
2021/12/01 11:45:37;;;;;;;0.73;0.30;;;8.00;90.90;;;;;;4997291;28;20052;-80
2021/12/01 11:48:02;;;;;;;0.88;0.88;;;8.00;90.90;;;;;;5005200;28;20431;-79
2021/12/01 11:50:33;;;;;;;0.50;0.50;;;8.00;90.90;;;;;;5016472;28;20067;-78
2021/12/01 11:53:20;;;;;;;0.70;0.70;;;8.10;91.00;;;;;;4982393;28;20083;-80
2021/12/01 11:56:10;;;;;;;0.60;0.60;;;8.10;91.00;;;;;;4991217;28;20406;-79
2021/12/01 11:58:54;;;;;;;0.60;0.60;;;8.10;90.90;;;;;;4974273;28;20064;-78
2021/12/01 12:01:20;;;;;;;0.50;0.50;;;8.10;91.00;;;;;;4979402;28;20061;-80
2021/12/01 12:03:59;;;;;;;0.60;0.30;;;8.20;91.00;;;;;;5016966;28;20072;-79
2021/12/01 12:06:26;;;;;;;0.47;0.40;;;8.20;90.90;;;;;;4980833;28;20038;-81
2021/12/01 12:08:54;;;;;;;0.63;0.40;;;8.30;90.90;;;;;;4989171;28;20567;-79
2021/12/01 12:11:43;;;;;;;0.40;0.40;;;8.30;90.90;;;;;;5021904;28;20057;-79
2021/12/01 12:14:19;;;;;;;0.60;0.50;;;8.30;90.90;;;;;;4997461;28;20045;-80
2021/12/01 12:17:02;;;;;;;1.65;0.55;;;8.30;90.80;;;;;;4996888;28;20045;-80
2021/12/01 12:19:46;;;;;;;0.90;0.63;;;8.40;90.80;;;;;;4996383;28;20534;-79
2021/12/01 12:22:17;;;;;;;0.90;0.75;;;8.40;90.70;;;;;;4989340;28;20141;-78
2021/12/01 12:24:45;;;;;;;1.67;0.90;;;8.40;90.70;;;;;;4967937;28;20033;-79
2021/12/01 12:27:37;;;;;;;1.45;1.35;;;8.40;90.70;;;;;;4998215;28;20203;-78
2021/12/01 12:30:08;;;;;;;0.95;0.50;;;8.40;90.70;;;;;;5019063;28;20030;-77
2021/12/01 12:32:34;;;;;;;0.50;0.50;;;8.40;90.70;;;;;;4980387;28;20065;-79
2021/12/01 12:35:06;;;;;;;0.30;0.30;;;8.50;90.70;;;;;;4971322;28;20046;-79
2021/12/01 12:37:33;;;;;;;1.67;0.93;;;8.50;90.70;;;;;;4985661;28;20044;-78
2021/12/01 12:39:59;;;;;;;1.08;0.63;;;8.50;90.60;;;;;;4978550;28;20064;-79
2021/12/01 12:42:24;;;;;;;2.50;1.13;;;8.50;90.60;;;;;;4991139;28;20049;-78
2021/12/01 12:44:51;;;;;;;0.20;0.20;;;8.50;90.60;;;;;;4988911;28;20029;-78
2021/12/01 12:47:24;;;;;;;0.73;0.50;;;8.50;90.50;;;;;;4950505;28;20567;-77
2021/12/01 12:49:55;;;;;;;1.60;1.00;;;8.50;90.50;;;;;;4971133;28;20038;-79
2021/12/01 12:52:41;;;;;;;1.87;1.00;;;8.50;90.50;;;;;;4973252;28;20038;-79
2021/12/01 12:55:10;;;;;;;0.32;0.20;;;8.50;90.50;;;;;;4987989;28;20675;-78
2021/12/01 12:57:51;;;;;;;0.63;0.55;;;8.50;90.50;;;;;;4963186;28;20045;-78
2021/12/01 13:00:55;;;;;;;0.85;0.45;;;8.50;90.50;;;;;;4955725;28;20046;-79
2021/12/01 13:03:25;;;;;;;1.75;1.13;;;8.50;90.50;;;;;;4974479;28;20035;-78